createdAt,value
2024-01-10T00:00:19.842Z,5.32
2024-01-10T00:03:21.893Z,5.28
2024-01-10T00:06:24.894Z,5.22
2024-01-10T00:09:27.328Z,5.63
2024-01-10T00:12:34.567Z,11.00
2024-01-10T00:15:36.962Z,8.48
2024-01-10T00:18:41.289Z,9.70
2024-01-10T00:21:43.710Z,20.47
2024-01-10T00:24:46.017Z,8.80
2024-01-10T00:27:48.008Z,17.35
2024-01-10T00:30:50.962Z,7.00
2024-01-10T00:33:53.465Z,24.52
2024-01-10T00:36:55.932Z,9.10
2024-01-10T00:39:58.241Z,10.38
2024-01-10T00:43:00.552Z,9.63
2024-01-10T00:46:02.903Z,9.40
2024-01-10T00:49:04.944Z,5.13
2024-01-10T00:52:07.242Z,6.00
2024-01-10T00:55:09.915Z,12.73
2024-01-10T00:58:12.861Z,7.47
2024-01-10T01:01:15.461Z,3.47
2024-01-10T01:04:18.575Z,18.58
2024-01-10T01:07:21.363Z,6.70
2024-01-10T01:10:23.990Z,4.70
2024-01-10T01:13:26.639Z,11.80
2024-01-10T01:16:29.220Z,11.15
2024-01-10T01:19:32.892Z,20.05
2024-01-10T01:22:36.049Z,5.90
2024-01-10T01:25:38.771Z,17.85
2024-01-10T01:28:41.445Z,8.90
2024-01-10T01:31:43.572Z,12.15
2024-01-10T01:34:45.885Z,10.52
2024-01-10T01:37:48.562Z,7.57
2024-01-10T01:40:50.983Z,11.35
2024-01-10T01:43:53.703Z,10.73
2024-01-10T01:46:56.750Z,10.23
2024-01-10T01:49:59.252Z,8.18
2024-01-10T01:53:01.935Z,19.53
2024-01-10T01:56:09.042Z,9.57
2024-01-10T01:59:12.506Z,3.78
2024-01-10T02:02:17.646Z,4.68
2024-01-10T02:05:20.242Z,4.90
2024-01-10T02:08:22.697Z,4.47
2024-01-10T02:11:27.568Z,5.05
2024-01-10T02:14:30.524Z,3.70
2024-01-10T02:17:32.679Z,3.92
2024-01-10T02:20:35.028Z,4.00
2024-01-10T02:23:37.481Z,4.47
2024-01-10T02:26:40.814Z,3.88
2024-01-10T02:29:43.158Z,4.53
2024-01-10T02:32:45.522Z,2.50
2024-01-10T02:35:47.850Z,2.83
2024-01-10T02:38:51.335Z,3.78
2024-01-10T02:41:53.611Z,4.32
2024-01-10T02:44:55.937Z,4.53
2024-01-10T02:47:58.116Z,4.93
2024-01-10T02:51:00.434Z,7.28
2024-01-10T02:54:02.773Z,2.00
2024-01-10T02:57:04.920Z,3.35
2024-01-10T03:00:07.823Z,1.45
2024-01-10T03:03:10.190Z,2.25
2024-01-10T03:06:12.692Z,10.52
2024-01-10T03:09:14.985Z,2.08
2024-01-10T03:12:17.452Z,2.00
2024-01-10T03:15:19.766Z,5.30
2024-01-10T03:18:22.099Z,4.00
2024-01-10T03:21:26.083Z,3.00
2024-01-10T03:24:28.586Z,2.57
2024-01-10T03:27:30.950Z,3.63
2024-01-10T03:30:33.071Z,1.60
2024-01-10T03:33:35.227Z,2.80
2024-01-10T03:36:37.361Z,1.95
2024-01-10T03:39:39.360Z,2.95
2024-01-10T03:42:41.615Z,2.50
2024-01-10T03:45:43.948Z,7.40
2024-01-10T03:48:49.662Z,7.80
2024-01-10T03:51:52.055Z,4.57
2024-01-10T03:54:54.201Z,5.43
2024-01-10T03:57:56.310Z,6.10
2024-01-10T04:00:58.707Z,3.92
2024-01-10T04:04:00.915Z,2.85
2024-01-10T04:07:02.963Z,2.13
2024-01-10T04:10:06.150Z,3.90
2024-01-10T04:13:08.376Z,3.25
2024-01-10T04:16:10.372Z,2.10
2024-01-10T04:19:13.768Z,2.78
2024-01-10T04:22:16.043Z,8.15
2024-01-10T04:25:18.384Z,3.70
2024-01-10T04:28:20.693Z,5.32
2024-01-10T04:31:23.066Z,2.72
2024-01-10T04:34:25.983Z,3.67
2024-01-10T04:37:28.317Z,2.95
2024-01-10T04:40:30.890Z,8.43
2024-01-10T04:43:33.302Z,4.22
2024-01-10T04:46:35.991Z,4.83
2024-01-10T04:49:38.456Z,5.38
2024-01-10T04:52:40.810Z,7.43
2024-01-10T04:55:42.818Z,3.97
2024-01-10T04:58:44.855Z,4.97
2024-01-10T05:01:47.206Z,4.60
2024-01-10T05:04:50.754Z,1.77
2024-01-10T05:07:53.227Z,7.10
2024-01-10T05:10:55.626Z,13.07
2024-01-10T05:13:58.346Z,7.03
2024-01-10T05:17:01.106Z,4.90
2024-01-10T05:20:04.030Z,27.45
2024-01-10T05:23:06.387Z,10.13
2024-01-10T05:26:08.896Z,6.03
2024-01-10T05:29:11.260Z,8.95
2024-01-10T05:32:13.599Z,11.68
2024-01-10T05:35:16.241Z,9.63
2024-01-10T05:38:18.760Z,8.88
2024-01-10T05:41:20.913Z,5.75
2024-01-10T05:44:23.396Z,5.95
2024-01-10T05:47:27.195Z,10.30
2024-01-10T05:50:29.474Z,5.32
2024-01-10T05:53:31.914Z,5.78
2024-01-10T05:56:34.244Z,5.77
2024-01-10T05:59:36.671Z,10.15
2024-01-10T06:02:42.125Z,22.02
2024-01-10T06:05:44.263Z,8.25
2024-01-10T06:08:46.904Z,18.50
2024-01-10T06:11:49.509Z,8.43
2024-01-10T06:14:51.523Z,8.63
2024-01-10T06:17:53.960Z,14.47
2024-01-10T06:20:56.376Z,10.48
2024-01-10T06:23:58.578Z,12.52
2024-01-10T06:27:00.856Z,7.93
2024-01-10T06:30:02.926Z,11.48
2024-01-10T06:33:08.100Z,8.43
2024-01-10T06:36:10.496Z,12.20
2024-01-10T06:39:16.958Z,18.77
2024-01-10T06:42:19.350Z,18.90
2024-01-10T06:45:21.647Z,17.83
2024-01-10T06:48:24.012Z,43.23
2024-01-10T06:51:30.506Z,24.52
2024-01-10T06:54:32.509Z,19.65
2024-01-10T06:57:34.645Z,16.20
2024-01-10T07:00:39.479Z,10.18
2024-01-10T07:03:42.030Z,24.48
2024-01-10T07:06:44.648Z,12.38
2024-01-10T07:09:46.992Z,12.02
2024-01-10T07:12:49.078Z,9.43
2024-01-10T07:15:53.722Z,16.70
2024-01-10T07:19:01.259Z,12.40
2024-01-10T07:22:03.756Z,13.10
2024-01-10T07:25:09.121Z,12.95
2024-01-10T07:28:11.593Z,23.93
2024-01-10T07:31:14.171Z,31.38
2024-01-10T07:34:16.612Z,12.65
2024-01-10T07:37:22.095Z,20.08
2024-01-10T07:40:24.496Z,9.57
2024-01-10T07:43:28.201Z,13.30
2024-01-10T07:46:30.336Z,10.32
2024-01-10T07:49:33.354Z,12.50
2024-01-10T07:52:35.970Z,6.90
2024-01-10T07:55:39.310Z,8.45
2024-01-10T07:58:41.450Z,7.17
2024-01-10T08:01:57.685Z,6.68
2024-01-10T08:05:00.123Z,11.75
2024-01-10T08:08:02.638Z,6.57
2024-01-10T08:11:05.185Z,19.67
2024-01-10T08:14:09.131Z,16.40
2024-01-10T08:17:11.515Z,8.85
2024-01-10T08:20:16.317Z,12.63
2024-01-10T08:23:19.346Z,13.73
2024-01-10T08:26:21.913Z,26.85
2024-01-10T08:29:26.921Z,23.90
2024-01-10T08:32:29.703Z,18.45
2024-01-10T08:35:31.901Z,22.25
2024-01-10T08:38:36.534Z,17.48
2024-01-10T08:41:44.185Z,20.17
2024-01-10T08:44:46.280Z,25.83
2024-01-10T08:47:48.623Z,25.77
2024-01-10T08:50:51.705Z,17.40
2024-01-10T08:53:55.236Z,12.65
2024-01-10T08:56:57.875Z,12.60
2024-01-10T09:00:01.125Z,14.33
2024-01-10T09:03:03.803Z,12.50
2024-01-10T09:06:11.702Z,7.30
2024-01-10T09:09:14.694Z,7.15
2024-01-10T09:12:16.766Z,5.97
2024-01-10T09:15:19.155Z,10.63
2024-01-10T09:18:21.656Z,9.57
2024-01-10T09:21:24.455Z,5.13
2024-01-10T09:24:29.882Z,9.93
2024-01-10T09:27:36.580Z,7.15
2024-01-10T09:30:42.132Z,6.33
2024-01-10T09:33:44.987Z,6.22
2024-01-10T09:36:47.420Z,4.70
2024-01-10T09:39:49.449Z,4.68
2024-01-10T09:42:52.477Z,6.25
2024-01-10T09:45:55.973Z,6.85
2024-01-10T09:49:01.245Z,6.88
2024-01-10T09:52:06.231Z,13.07
2024-01-10T09:55:10.087Z,5.45
2024-01-10T09:58:12.538Z,10.80
2024-01-10T10:01:15.273Z,11.27
2024-01-10T10:04:21.478Z,7.57
2024-01-10T10:07:23.696Z,10.50
2024-01-10T10:10:26.101Z,6.28
2024-01-10T10:13:30.416Z,3.35
2024-01-10T10:16:32.902Z,8.23
2024-01-10T10:19:41.014Z,11.07
2024-01-10T10:22:58.659Z,4.93
2024-01-10T10:26:11.686Z,12.18
2024-01-10T10:29:18.130Z,15.15
2024-01-10T10:32:20.259Z,8.40
2024-01-10T10:35:36.158Z,9.43
2024-01-10T10:38:41.709Z,6.95
2024-01-10T10:41:44.908Z,8.07
2024-01-10T10:44:49.110Z,7.38
2024-01-10T10:47:52.108Z,11.68
2024-01-10T10:50:59.924Z,5.82
2024-01-10T10:54:05.376Z,9.63
2024-01-10T10:57:08.643Z,6.18
2024-01-10T11:00:12.286Z,11.43
2024-01-10T11:03:15.908Z,12.07
2024-01-10T11:06:19.633Z,4.57
2024-01-10T11:09:24.961Z,9.40
2024-01-10T11:13:05.055Z,8.48
2024-01-10T11:16:10.741Z,9.40
2024-01-10T11:19:43.462Z,9.40
2024-01-10T11:23:22.753Z,8.55
2024-01-10T11:26:25.102Z,6.73
2024-01-10T11:29:29.754Z,8.30
2024-01-10T11:32:34.426Z,6.93
2024-01-10T11:35:36.938Z,12.03
2024-01-10T11:38:55.917Z,17.77
2024-01-10T11:41:58.392Z,5.78
2024-01-10T11:45:02.902Z,11.73
2024-01-10T11:48:08.302Z,4.78
2024-01-10T11:51:10.672Z,6.20
2024-01-10T11:54:13.177Z,4.65
2024-01-10T11:57:18.597Z,9.13
2024-01-10T12:00:21.957Z,5.82
2024-01-10T12:03:25.269Z,7.30
2024-01-10T12:06:29.806Z,5.47
2024-01-10T12:09:32.893Z,6.65
2024-01-10T12:12:37.649Z,9.57
2024-01-10T12:15:39.976Z,9.20
2024-01-10T12:18:43.044Z,4.25
2024-01-10T12:21:45.210Z,7.47
2024-01-10T12:24:51.517Z,14.25
2024-01-10T12:27:54.406Z,6.40
2024-01-10T12:30:56.626Z,7.25
2024-01-10T12:34:00.396Z,9.35
2024-01-10T12:37:02.729Z,5.33
2024-01-10T12:40:09.707Z,5.57
2024-01-10T12:43:14.119Z,5.47
2024-01-10T12:46:16.598Z,11.48
2024-01-10T12:49:19.015Z,6.90
2024-01-10T12:52:23.905Z,5.78
2024-01-10T12:55:30.393Z,4.25
2024-01-10T12:58:38.109Z,7.10
2024-01-10T13:01:49.313Z,4.95
2024-01-10T13:04:51.826Z,4.93
2024-01-10T13:07:53.962Z,7.50
2024-01-10T13:10:56.338Z,7.22
2024-01-10T13:13:58.497Z,5.03
2024-01-10T13:17:01.092Z,7.68
2024-01-10T13:20:04.660Z,5.07
2024-01-10T13:23:07.301Z,9.18
2024-01-10T13:26:09.709Z,8.90
2024-01-10T13:29:11.832Z,6.63
2024-01-10T13:32:17.087Z,6.97
2024-01-10T13:35:24.899Z,6.50
2024-01-10T13:38:27.723Z,7.43
2024-01-10T13:41:30.199Z,6.35
2024-01-10T13:44:32.632Z,6.50
2024-01-10T13:47:35.662Z,7.50
2024-01-10T13:50:37.926Z,6.68
2024-01-10T13:53:40.060Z,5.80
2024-01-10T13:56:42.395Z,9.82
2024-01-10T13:59:44.859Z,6.20
2024-01-10T14:02:47.311Z,8.15
2024-01-10T14:05:49.669Z,8.18
2024-01-10T14:08:52.166Z,6.07
2024-01-10T14:11:54.594Z,6.38
2024-01-10T14:14:58.555Z,5.90
2024-01-10T14:18:02.562Z,11.23
2024-01-10T14:21:06.424Z,19.38
2024-01-10T14:24:08.999Z,5.70
2024-01-10T14:27:11.805Z,13.25
2024-01-10T14:30:16.718Z,11.60
2024-01-10T14:33:19.782Z,8.38
2024-01-10T14:36:22.637Z,9.15
2024-01-10T14:39:25.060Z,5.87
2024-01-10T14:42:27.587Z,9.65
2024-01-10T14:45:30.045Z,33.08
2024-01-10T14:48:34.389Z,32.60
2024-01-10T14:51:36.564Z,19.23
2024-01-10T14:54:38.678Z,18.15
2024-01-10T14:57:40.715Z,13.27
2024-01-10T15:00:45.130Z,15.13
2024-01-10T15:03:47.426Z,8.88
2024-01-10T15:06:49.798Z,14.32
2024-01-10T15:09:52.276Z,10.43
2024-01-10T15:12:54.808Z,10.80
2024-01-10T15:15:58.847Z,14.73
2024-01-10T15:19:04.677Z,18.23
2024-01-10T15:22:10.780Z,9.95
2024-01-10T15:25:20.595Z,21.95
2024-01-10T15:28:23.518Z,14.95
2024-01-10T15:31:26.592Z,14.43
2024-01-10T15:34:29.266Z,10.25
2024-01-10T15:37:31.749Z,11.75
2024-01-10T15:40:43.398Z,21.83
2024-01-10T15:43:54.454Z,13.90
2024-01-10T15:47:04.812Z,23.35
2024-01-10T15:50:22.365Z,22.65
2024-01-10T15:53:27.509Z,11.45
2024-01-10T15:56:36.466Z,23.10
2024-01-10T16:00:21.407Z,14.02
2024-01-10T16:03:50.751Z,11.50
2024-01-10T16:08:09.481Z,11.30
2024-01-10T16:11:28.337Z,24.85
2024-01-10T16:14:40.869Z,16.07
2024-01-10T16:17:46.470Z,19.83
2024-01-10T16:20:50.653Z,25.77
2024-01-10T16:23:53.242Z,16.95
2024-01-10T16:26:55.720Z,29.40
2024-01-10T16:29:57.987Z,13.60
2024-01-10T16:33:00.492Z,25.90
2024-01-10T16:36:03.181Z,11.93
2024-01-10T16:39:06.668Z,23.55
2024-01-10T16:42:14.049Z,19.55
2024-01-10T16:45:16.238Z,19.10
2024-01-10T16:48:19.051Z,31.42
2024-01-10T16:51:22.265Z,24.38
2024-01-10T16:54:25.474Z,18.83
2024-01-10T16:57:27.667Z,20.70
2024-01-10T17:00:30.111Z,26.67
2024-01-10T17:03:32.991Z,21.55
2024-01-10T17:06:36.968Z,15.63
2024-01-10T17:09:40.293Z,25.90
2024-01-10T17:12:42.695Z,20.63
2024-01-10T17:15:45.066Z,20.53
2024-01-10T17:18:47.633Z,31.58
2024-01-10T17:21:49.974Z,24.52
2024-01-10T17:24:52.426Z,33.28
2024-01-10T17:27:54.483Z,31.30
2024-01-10T17:30:57.240Z,27.83
2024-01-10T17:34:00.403Z,14.68
2024-01-10T17:37:03.733Z,17.43
2024-01-10T17:40:06.564Z,22.30
2024-01-10T17:43:09.553Z,21.23
2024-01-10T17:46:12.111Z,20.00
2024-01-10T17:49:15.323Z,24.77
2024-01-10T17:52:17.834Z,31.17
2024-01-10T17:55:20.298Z,44.08
2024-01-10T17:58:23.227Z,15.48
2024-01-10T18:01:25.580Z,23.85
2024-01-10T18:04:27.802Z,24.27
2024-01-10T18:07:29.964Z,14.97
2024-01-10T18:10:32.483Z,34.63
2024-01-10T18:13:36.718Z,19.90
2024-01-10T18:16:38.968Z,23.37
2024-01-10T18:19:41.220Z,28.17
2024-01-10T18:22:43.827Z,31.05
2024-01-10T18:25:47.907Z,14.43
2024-01-10T18:28:50.244Z,21.70
2024-01-10T18:31:52.839Z,16.27
2024-01-10T18:34:55.104Z,31.17
2024-01-10T18:37:57.550Z,19.03
2024-01-10T18:41:00.019Z,21.30
2024-01-10T18:44:03.451Z,25.00
2024-01-10T18:47:07.424Z,24.67
2024-01-10T18:50:10.070Z,19.63
2024-01-10T18:53:12.337Z,22.50
2024-01-10T18:56:15.529Z,17.10
2024-01-10T18:59:18.278Z,20.17
2024-01-10T19:02:20.730Z,30.55
2024-01-10T19:05:23.100Z,24.30
2024-01-10T19:08:26.587Z,34.37
2024-01-10T19:11:29.133Z,26.13
2024-01-10T19:14:36.171Z,25.85
2024-01-10T19:17:39.001Z,31.00
2024-01-10T19:20:41.758Z,26.05
2024-01-10T19:23:46.550Z,31.48
2024-01-10T19:26:52.142Z,25.00
2024-01-10T19:29:54.824Z,22.27
2024-01-10T19:32:57.619Z,30.40
2024-01-10T19:36:00.594Z,23.60
2024-01-10T19:39:02.912Z,21.47
2024-01-10T19:42:06.416Z,23.13
2024-01-10T19:45:09.202Z,26.45
2024-01-10T19:48:11.582Z,18.73
2024-01-10T19:51:14.683Z,28.13
2024-01-10T19:54:17.376Z,27.33
2024-01-10T19:57:20.271Z,16.13
2024-01-10T20:00:23.627Z,29.05
2024-01-10T20:03:27.265Z,11.13
2024-01-10T20:06:30.266Z,21.88
2024-01-10T20:09:33.396Z,18.07
2024-01-10T20:12:36.489Z,22.55
2024-01-10T20:15:38.962Z,26.73
2024-01-10T20:18:41.185Z,19.33
2024-01-10T20:21:44.041Z,21.10
2024-01-10T20:24:46.912Z,23.20
2024-01-10T20:27:49.273Z,31.35
2024-01-10T20:30:51.472Z,27.67
2024-01-10T20:33:54.288Z,24.58
2024-01-10T20:36:58.667Z,23.80
2024-01-10T20:40:04.410Z,31.93
2024-01-10T20:43:07.802Z,17.15
2024-01-10T20:46:10.419Z,21.15
2024-01-10T20:49:12.792Z,25.40
2024-01-10T20:52:18.022Z,23.42
2024-01-10T20:55:20.186Z,33.45
2024-01-10T20:58:22.561Z,27.48
2024-01-10T21:01:24.937Z,29.85
2024-01-10T21:04:27.294Z,22.17
2024-01-10T21:07:29.433Z,42.78
2024-01-10T21:10:31.721Z,22.60
2024-01-10T21:13:35.957Z,28.40
2024-01-10T21:16:39.559Z,31.95
2024-01-10T21:19:43.473Z,41.43
2024-01-10T21:22:45.596Z,33.05
2024-01-10T21:25:51.724Z,57.58
2024-01-10T21:28:57.899Z,72.85
2024-01-10T21:32:00.713Z,56.28
2024-01-10T21:35:03.567Z,65.53
2024-01-10T21:38:05.819Z,53.00
2024-01-10T21:41:09.504Z,47.33
2024-01-10T21:44:11.819Z,43.00
2024-01-10T21:47:14.065Z,69.75
2024-01-10T21:50:16.456Z,61.33
2024-01-10T21:53:19.043Z,60.80
2024-01-10T21:56:21.529Z,59.10
2024-01-10T21:59:23.767Z,68.50
2024-01-10T22:02:26.113Z,58.15
2024-01-10T22:05:30.495Z,51.47
2024-01-10T22:08:33.811Z,47.65
2024-01-10T22:11:37.533Z,43.30
2024-01-10T22:14:39.839Z,73.90
2024-01-10T22:17:42.304Z,31.23
2024-01-10T22:20:45.070Z,62.10
2024-01-10T22:23:47.392Z,33.00
2024-01-10T22:26:51.656Z,33.28
2024-01-10T22:29:53.928Z,36.70
2024-01-10T22:32:56.134Z,30.90
2024-01-10T22:35:58.428Z,22.42
2024-01-10T22:39:00.503Z,38.47
2024-01-10T22:42:03.642Z,30.87
2024-01-10T22:45:07.093Z,19.80
2024-01-10T22:48:09.367Z,32.38
2024-01-10T22:51:11.408Z,26.70
2024-01-10T22:54:15.739Z,45.90
2024-01-10T22:57:18.445Z,37.03
2024-01-10T23:00:23.098Z,31.85
2024-01-10T23:03:25.317Z,21.55
2024-01-10T23:06:27.997Z,36.60
2024-01-10T23:09:30.425Z,23.23
2024-01-10T23:12:32.512Z,26.33
2024-01-10T23:15:34.840Z,31.92
2024-01-10T23:18:37.361Z,27.48
2024-01-10T23:21:39.952Z,29.10
2024-01-10T23:24:42.288Z,13.32
2024-01-10T23:27:44.729Z,24.30
2024-01-10T23:30:48.394Z,31.38
2024-01-10T23:33:51.010Z,22.38
2024-01-10T23:36:53.341Z,17.98
2024-01-10T23:39:56.050Z,27.20
2024-01-10T23:43:04.000Z,18.97
2024-01-10T23:46:09.591Z,24.83
2024-01-10T23:49:12.073Z,35.67
2024-01-10T23:52:15.084Z,17.03
2024-01-10T23:55:17.476Z,17.30
2024-01-10T23:58:20.731Z,19.40
